sensor_id;sensor_type;location;lat;lon;timestamp;pressure;altitude;pressure_sealevel;temperature;humidity
81162;BME280;70638;-33.792;151.032;2023-06-22T00:01:49;101395.27;;;10.64;62.52
81162;BME280;70638;-33.792;151.032;2023-06-22T00:04:19;101395.79;;;10.87;62.50
81162;BME280;70638;-33.792;151.032;2023-06-22T00:06:50;101384.98;;;11.03;61.57
81162;BME280;70638;-33.792;151.032;2023-06-22T00:09:20;101381.42;;;11.00;62.16
81162;BME280;70638;-33.792;151.032;2023-06-22T00:11:50;101396.96;;;11.24;62.21
81162;BME280;70638;-33.792;151.032;2023-06-22T00:14:21;101414.72;;;11.37;61.55
81162;BME280;70638;-33.792;151.032;2023-06-22T00:16:51;101410.38;;;11.62;60.98
81162;BME280;70638;-33.792;151.032;2023-06-22T00:19:21;101390.30;;;11.83;60.13
81162;BME280;70638;-33.792;151.032;2023-06-22T00:21:51;101381.38;;;11.78;58.96
81162;BME280;70638;-33.792;151.032;2023-06-22T00:24:22;101377.12;;;12.21;60.65
81162;BME280;70638;-33.792;151.032;2023-06-22T00:26:52;101373.62;;;12.25;57.79
81162;BME280;70638;-33.792;151.032;2023-06-22T00:29:22;101355.44;;;12.23;57.89
81162;BME280;70638;-33.792;151.032;2023-06-22T00:31:52;101349.41;;;12.07;57.86
81162;BME280;70638;-33.792;151.032;2023-06-22T00:34:23;101339.97;;;11.98;58.32
81162;BME280;70638;-33.792;151.032;2023-06-22T00:36:53;101334.16;;;11.98;58.17
81162;BME280;70638;-33.792;151.032;2023-06-22T00:39:24;101332.20;;;12.12;58.97
81162;BME280;70638;-33.792;151.032;2023-06-22T00:41:55;101331.70;;;12.07;58.45
81162;BME280;70638;-33.792;151.032;2023-06-22T00:44:24;101320.31;;;12.10;59.15
81162;BME280;70638;-33.792;151.032;2023-06-22T00:47:05;101305.02;;;12.14;58.20
81162;BME280;70638;-33.792;151.032;2023-06-22T00:49:25;101287.15;;;12.14;58.06
81162;BME280;70638;-33.792;151.032;2023-06-22T00:51:56;101273.50;;;12.18;58.60
81162;BME280;70638;-33.792;151.032;2023-06-22T00:54:26;101253.03;;;12.28;58.32
81162;BME280;70638;-33.792;151.032;2023-06-22T00:56:57;101244.95;;;12.42;57.67
81162;BME280;70638;-33.792;151.032;2023-06-22T00:59:28;101237.84;;;12.54;57.59
81162;BME280;70638;-33.792;151.032;2023-06-22T01:01:58;101227.31;;;12.59;57.43
81162;BME280;70638;-33.792;151.032;2023-06-22T01:04:36;101222.89;;;12.60;57.32
81162;BME280;70638;-33.792;151.032;2023-06-22T01:07:10;101203.59;;;12.68;57.14
81162;BME280;70638;-33.792;151.032;2023-06-22T01:09:34;101199.87;;;12.82;57.71
81162;BME280;70638;-33.792;151.032;2023-06-22T01:12:03;101199.84;;;13.03;57.58
81162;BME280;70638;-33.792;151.032;2023-06-22T01:14:42;101201.40;;;13.16;57.15
81162;BME280;70638;-33.792;151.032;2023-06-22T01:17:02;101203.19;;;13.42;57.97
81162;BME280;70638;-33.792;151.032;2023-06-22T01:19:46;101205.92;;;13.33;56.49
81162;BME280;70638;-33.792;151.032;2023-06-22T01:22:05;101200.70;;;13.37;55.70
81162;BME280;70638;-33.792;151.032;2023-06-22T01:27:24;101190.92;;;13.47;55.25
81162;BME280;70638;-33.792;151.032;2023-06-22T01:29:37;101188.02;;;13.42;55.04
81162;BME280;70638;-33.792;151.032;2023-06-22T01:32:07;101179.97;;;13.44;55.80
81162;BME280;70638;-33.792;151.032;2023-06-22T01:34:38;101176.03;;;13.44;55.72
81162;BME280;70638;-33.792;151.032;2023-06-22T01:37:08;101177.66;;;13.46;56.11
81162;BME280;70638;-33.792;151.032;2023-06-22T01:39:38;101169.33;;;13.48;56.06
81162;BME280;70638;-33.792;151.032;2023-06-22T01:42:09;101167.66;;;13.49;56.14
81162;BME280;70638;-33.792;151.032;2023-06-22T01:44:39;101159.94;;;13.65;55.93
81162;BME280;70638;-33.792;151.032;2023-06-22T01:47:09;101165.34;;;13.55;55.81
81162;BME280;70638;-33.792;151.032;2023-06-22T01:49:40;101167.66;;;13.62;56.42
81162;BME280;70638;-33.792;151.032;2023-06-22T01:52:10;101165.92;;;13.60;56.63
81162;BME280;70638;-33.792;151.032;2023-06-22T01:54:40;101166.31;;;13.75;56.79
81162;BME280;70638;-33.792;151.032;2023-06-22T01:57:11;101166.45;;;13.69;56.33
81162;BME280;70638;-33.792;151.032;2023-06-22T01:59:52;101161.67;;;13.67;56.33
81162;BME280;70638;-33.792;151.032;2023-06-22T02:02:12;101162.03;;;13.60;56.18
81162;BME280;70638;-33.792;151.032;2023-06-22T02:04:51;101158.73;;;13.90;56.35
81162;BME280;70638;-33.792;151.032;2023-06-22T02:07:14;101157.58;;;13.65;55.89
81162;BME280;70638;-33.792;151.032;2023-06-22T02:09:45;101148.94;;;13.73;56.19
81162;BME280;70638;-33.792;151.032;2023-06-22T02:12:17;101140.37;;;13.62;56.23
81162;BME280;70638;-33.792;151.032;2023-06-22T02:14:44;101126.84;;;13.63;56.20
81162;BME280;70638;-33.792;151.032;2023-06-22T02:17:16;101119.03;;;13.65;55.97
81162;BME280;70638;-33.792;151.032;2023-06-22T02:19:46;101118.98;;;13.62;56.18
81162;BME280;70638;-33.792;151.032;2023-06-22T02:22:25;101114.38;;;13.64;56.73
81162;BME280;70638;-33.792;151.032;2023-06-22T02:24:46;101108.59;;;13.66;56.13
81162;BME280;70638;-33.792;151.032;2023-06-22T02:27:17;101097.33;;;13.69;56.41
81162;BME280;70638;-33.792;151.032;2023-06-22T02:29:47;101087.42;;;13.64;56.33
81162;BME280;70638;-33.792;151.032;2023-06-22T02:32:17;101086.16;;;13.60;56.34
81162;BME280;70638;-33.792;151.032;2023-06-22T02:34:47;101084.31;;;13.51;56.52
81162;BME280;70638;-33.792;151.032;2023-06-22T02:37:18;101081.84;;;13.78;57.68
81162;BME280;70638;-33.792;151.032;2023-06-22T02:39:48;101067.91;;;14.09;57.65
81162;BME280;70638;-33.792;151.032;2023-06-22T02:42:18;101058.41;;;14.03;55.51
81162;BME280;70638;-33.792;151.032;2023-06-22T02:44:49;101048.33;;;14.28;54.95
81162;BME280;70638;-33.792;151.032;2023-06-22T02:47:19;101042.90;;;14.39;54.50
81162;BME280;70638;-33.792;151.032;2023-06-22T02:49:49;101037.92;;;14.22;54.92
81162;BME280;70638;-33.792;151.032;2023-06-22T02:52:19;101023.27;;;14.54;56.16
81162;BME280;70638;-33.792;151.032;2023-06-22T02:54:50;101019.53;;;14.74;55.40
81162;BME280;70638;-33.792;151.032;2023-06-22T02:57:24;101021.61;;;14.42;55.36
81162;BME280;70638;-33.792;151.032;2023-06-22T02:59:50;101024.81;;;14.28;55.30
81162;BME280;70638;-33.792;151.032;2023-06-22T03:02:21;101027.69;;;14.22;55.92
81162;BME280;70638;-33.792;151.032;2023-06-22T03:04:51;101014.23;;;14.30;57.61
81162;BME280;70638;-33.792;151.032;2023-06-22T03:07:22;101002.48;;;14.28;55.69
81162;BME280;70638;-33.792;151.032;2023-06-22T03:09:52;100994.88;;;14.23;56.83
81162;BME280;70638;-33.792;151.032;2023-06-22T03:12:22;100999.20;;;14.08;56.56
81162;BME280;70638;-33.792;151.032;2023-06-22T03:14:53;100991.98;;;13.93;56.59
81162;BME280;70638;-33.792;151.032;2023-06-22T03:17:23;100982.31;;;13.92;56.48
81162;BME280;70638;-33.792;151.032;2023-06-22T03:19:53;100984.16;;;13.85;56.90
81162;BME280;70638;-33.792;151.032;2023-06-22T03:22:23;100979.30;;;13.93;57.51
81162;BME280;70638;-33.792;151.032;2023-06-22T03:24:54;100976.27;;;13.78;57.68
81162;BME280;70638;-33.792;151.032;2023-06-22T03:27:24;100965.23;;;13.82;60.00
81162;BME280;70638;-33.792;151.032;2023-06-22T03:29:54;100958.81;;;13.81;60.88
81162;BME280;70638;-33.792;151.032;2023-06-22T03:32:32;100965.23;;;13.70;61.70
81162;BME280;70638;-33.792;151.032;2023-06-22T03:34:55;100968.27;;;13.68;59.25
81162;BME280;70638;-33.792;151.032;2023-06-22T03:37:26;100963.67;;;13.68;58.40
81162;BME280;70638;-33.792;151.032;2023-06-22T03:39:56;100957.50;;;13.73;58.75
81162;BME280;70638;-33.792;151.032;2023-06-22T03:42:26;100949.42;;;13.74;60.92
81162;BME280;70638;-33.792;151.032;2023-06-22T03:44:57;100952.02;;;13.73;60.87
81162;BME280;70638;-33.792;151.032;2023-06-22T03:47:27;100943.77;;;13.69;59.84
81162;BME280;70638;-33.792;151.032;2023-06-22T03:49:57;100949.69;;;13.76;61.74
81162;BME280;70638;-33.792;151.032;2023-06-22T03:52:28;100957.71;;;13.74;60.94
81162;BME280;70638;-33.792;151.032;2023-06-22T03:54:58;100963.16;;;13.66;61.58
81162;BME280;70638;-33.792;151.032;2023-06-22T03:57:28;100964.68;;;13.66;60.22
81162;BME280;70638;-33.792;151.032;2023-06-22T03:59:58;100962.23;;;13.73;61.91
81162;BME280;70638;-33.792;151.032;2023-06-22T04:02:29;100960.93;;;13.71;62.11
81162;BME280;70638;-33.792;151.032;2023-06-22T04:04:59;100959.73;;;13.87;62.69
81162;BME280;70638;-33.792;151.032;2023-06-22T04:07:35;100952.88;;;13.95;62.92
81162;BME280;70638;-33.792;151.032;2023-06-22T04:10:00;100954.83;;;13.96;62.77
81162;BME280;70638;-33.792;151.032;2023-06-22T04:12:30;100958.20;;;14.03;62.84
81162;BME280;70638;-33.792;151.032;2023-06-22T04:15:01;100957.23;;;13.88;61.63
81162;BME280;70638;-33.792;151.032;2023-06-22T04:17:31;100962.41;;;13.72;62.16
81162;BME280;70638;-33.792;151.032;2023-06-22T04:20:01;100960.17;;;13.60;60.98
81162;BME280;70638;-33.792;151.032;2023-06-22T04:22:32;100954.42;;;13.55;60.49
81162;BME280;70638;-33.792;151.032;2023-06-22T04:25:02;100959.27;;;13.50;60.36
81162;BME280;70638;-33.792;151.032;2023-06-22T04:27:32;100956.44;;;13.43;60.83
81162;BME280;70638;-33.792;151.032;2023-06-22T04:30:03;100950.97;;;13.35;61.75
81162;BME280;70638;-33.792;151.032;2023-06-22T04:32:33;100949.70;;;13.23;60.44
81162;BME280;70638;-33.792;151.032;2023-06-22T04:35:04;100938.57;;;13.13;60.62
81162;BME280;70638;-33.792;151.032;2023-06-22T04:37:34;100931.15;;;13.14;61.98
81162;BME280;70638;-33.792;151.032;2023-06-22T04:40:05;100923.12;;;13.09;61.90
81162;BME280;70638;-33.792;151.032;2023-06-22T04:42:35;100905.88;;;13.07;61.92
81162;BME280;70638;-33.792;151.032;2023-06-22T04:45:05;100901.62;;;13.10;61.92
81162;BME280;70638;-33.792;151.032;2023-06-22T04:47:36;100893.81;;;13.08;63.96
81162;BME280;70638;-33.792;151.032;2023-06-22T04:50:06;100881.14;;;12.98;65.03
81162;BME280;70638;-33.792;151.032;2023-06-22T04:52:37;100878.30;;;12.90;65.47
81162;BME280;70638;-33.792;151.032;2023-06-22T04:55:07;100900.73;;;12.83;67.28
81162;BME280;70638;-33.792;151.032;2023-06-22T04:57:38;100918.98;;;12.76;69.99
81162;BME280;70638;-33.792;151.032;2023-06-22T05:00:09;100919.84;;;12.69;70.59
81162;BME280;70638;-33.792;151.032;2023-06-22T05:02:39;100917.48;;;12.60;70.28
81162;BME280;70638;-33.792;151.032;2023-06-22T05:05:10;100932.26;;;12.52;68.80
81162;BME280;70638;-33.792;151.032;2023-06-22T05:07:44;100937.19;;;12.42;69.29
81162;BME280;70638;-33.792;151.032;2023-06-22T05:10:11;100939.91;;;12.39;68.42
81162;BME280;70638;-33.792;151.032;2023-06-22T05:12:41;100943.42;;;12.33;69.28
81162;BME280;70638;-33.792;151.032;2023-06-22T05:15:11;100935.22;;;12.29;67.60
81162;BME280;70638;-33.792;151.032;2023-06-22T05:17:42;100934.04;;;12.28;68.03
81162;BME280;70638;-33.792;151.032;2023-06-22T05:20:12;100938.22;;;12.30;68.24
81162;BME280;70638;-33.792;151.032;2023-06-22T05:22:41;100940.09;;;12.23;68.42
81162;BME280;70638;-33.792;151.032;2023-06-22T05:25:12;100942.12;;;12.19;67.77
81162;BME280;70638;-33.792;151.032;2023-06-22T05:27:43;100944.03;;;12.15;68.38
81162;BME280;70638;-33.792;151.032;2023-06-22T05:30:13;100942.23;;;12.10;68.50
81162;BME280;70638;-33.792;151.032;2023-06-22T05:32:43;100952.01;;;12.02;69.40
81162;BME280;70638;-33.792;151.032;2023-06-22T05:35:14;100961.09;;;11.95;71.79
81162;BME280;70638;-33.792;151.032;2023-06-22T05:37:44;100968.25;;;11.81;73.85
81162;BME280;70638;-33.792;151.032;2023-06-22T05:40:14;100971.48;;;11.61;77.81
81162;BME280;70638;-33.792;151.032;2023-06-22T05:42:45;100952.84;;;11.39;73.38
81162;BME280;70638;-33.792;151.032;2023-06-22T05:45:15;100929.92;;;11.02;80.08
81162;BME280;70638;-33.792;151.032;2023-06-22T05:47:45;100927.16;;;10.65;83.26
81162;BME280;70638;-33.792;151.032;2023-06-22T05:52:46;100947.23;;;10.41;87.46
81162;BME280;70638;-33.792;151.032;2023-06-22T05:55:17;100943.20;;;10.44;88.26
81162;BME280;70638;-33.792;151.032;2023-06-22T05:57:47;100942.17;;;10.46;89.00
81162;BME280;70638;-33.792;151.032;2023-06-22T06:00:18;100938.84;;;10.42;89.71
81162;BME280;70638;-33.792;151.032;2023-06-22T06:02:48;100944.22;;;10.35;90.20
81162;BME280;70638;-33.792;151.032;2023-06-22T06:05:19;100936.81;;;10.32;90.49
81162;BME280;70638;-33.792;151.032;2023-06-22T06:07:49;100929.09;;;10.29;90.09
81162;BME280;70638;-33.792;151.032;2023-06-22T06:10:19;100926.42;;;10.23;91.05
81162;BME280;70638;-33.792;151.032;2023-06-22T06:12:50;100920.34;;;10.13;90.96
81162;BME280;70638;-33.792;151.032;2023-06-22T06:15:20;100917.42;;;10.08;91.04
81162;BME280;70638;-33.792;151.032;2023-06-22T06:17:52;100914.84;;;10.06;91.23
81162;BME280;70638;-33.792;151.032;2023-06-22T06:20:24;100923.30;;;10.13;91.93
81162;BME280;70638;-33.792;151.032;2023-06-22T06:22:52;100931.78;;;10.22;91.90
81162;BME280;70638;-33.792;151.032;2023-06-22T06:25:23;100935.28;;;10.27;91.52
81162;BME280;70638;-33.792;151.032;2023-06-22T06:27:53;100938.85;;;10.33;91.76
81162;BME280;70638;-33.792;151.032;2023-06-22T06:30:24;100942.88;;;10.38;92.13
81162;BME280;70638;-33.792;151.032;2023-06-22T06:32:54;100940.36;;;10.39;92.15
81162;BME280;70638;-33.792;151.032;2023-06-22T06:35:25;100942.10;;;10.34;91.95
81162;BME280;70638;-33.792;151.032;2023-06-22T06:37:55;100947.69;;;10.30;91.83
81162;BME280;70638;-33.792;151.032;2023-06-22T06:40:25;100943.00;;;10.29;92.02
81162;BME280;70638;-33.792;151.032;2023-06-22T06:42:55;100953.50;;;10.28;92.31
81162;BME280;70638;-33.792;151.032;2023-06-22T06:45:26;100950.00;;;10.27;92.55
81162;BME280;70638;-33.792;151.032;2023-06-22T06:47:56;100947.44;;;10.21;92.36
81162;BME280;70638;-33.792;151.032;2023-06-22T06:50:27;100941.30;;;10.12;91.87
81162;BME280;70638;-33.792;151.032;2023-06-22T06:52:57;100942.00;;;10.08;92.48
81162;BME280;70638;-33.792;151.032;2023-06-22T06:55:28;100938.53;;;10.03;92.55
81162;BME280;70638;-33.792;151.032;2023-06-22T06:57:58;100950.03;;;10.00;92.46
81162;BME280;70638;-33.792;151.032;2023-06-22T07:00:33;100951.08;;;9.94;92.30
81162;BME280;70638;-33.792;151.032;2023-06-22T07:02:59;100946.95;;;9.94;92.80
81162;BME280;70638;-33.792;151.032;2023-06-22T07:05:29;100944.75;;;9.95;92.92
81162;BME280;70638;-33.792;151.032;2023-06-22T07:08:00;100933.33;;;9.96;93.16
81162;BME280;70638;-33.792;151.032;2023-06-22T07:10:30;100929.96;;;9.95;93.12
81162;BME280;70638;-33.792;151.032;2023-06-22T07:13:00;100922.97;;;9.97;93.41
81162;BME280;70638;-33.792;151.032;2023-06-22T07:15:30;100919.23;;;10.02;93.66
81162;BME280;70638;-33.792;151.032;2023-06-22T07:18:01;100914.03;;;10.02;93.67
81162;BME280;70638;-33.792;151.032;2023-06-22T07:20:31;100908.44;;;10.00;93.56
81162;BME280;70638;-33.792;151.032;2023-06-22T07:23:01;100900.84;;;9.97;93.50
81162;BME280;70638;-33.792;151.032;2023-06-22T07:25:31;100898.05;;;9.96;93.68
81162;BME280;70638;-33.792;151.032;2023-06-22T07:28:05;100900.91;;;9.93;93.64
81162;BME280;70638;-33.792;151.032;2023-06-22T07:30:33;100909.65;;;9.93;93.74
81162;BME280;70638;-33.792;151.032;2023-06-22T07:33:02;100910.39;;;9.95;93.72
81162;BME280;70638;-33.792;151.032;2023-06-22T07:35:37;100914.53;;;9.97;93.83
81162;BME280;70638;-33.792;151.032;2023-06-22T07:38:03;100913.74;;;9.98;93.88
81162;BME280;70638;-33.792;151.032;2023-06-22T07:40:33;100916.12;;;9.97;93.94
81162;BME280;70638;-33.792;151.032;2023-06-22T07:43:04;100918.45;;;9.98;94.02
81162;BME280;70638;-33.792;151.032;2023-06-22T07:45:34;100920.45;;;9.97;93.99
81162;BME280;70638;-33.792;151.032;2023-06-22T07:48:04;100922.08;;;9.98;93.80
81162;BME280;70638;-33.792;151.032;2023-06-22T07:50:34;100919.56;;;9.99;93.84
81162;BME280;70638;-33.792;151.032;2023-06-22T07:53:05;100915.83;;;10.00;93.91
81162;BME280;70638;-33.792;151.032;2023-06-22T07:55:35;100914.44;;;10.02;94.04
81162;BME280;70638;-33.792;151.032;2023-06-22T07:58:05;100915.84;;;10.03;94.00
81162;BME280;70638;-33.792;151.032;2023-06-22T08:00:36;100919.57;;;9.99;94.11
81162;BME280;70638;-33.792;151.032;2023-06-22T08:03:06;100919.95;;;10.00;94.14
81162;BME280;70638;-33.792;151.032;2023-06-22T08:05:36;100920.47;;;10.01;93.96
81162;BME280;70638;-33.792;151.032;2023-06-22T08:08:07;100916.21;;;9.99;93.94
81162;BME280;70638;-33.792;151.032;2023-06-22T08:10:40;100917.78;;;10.01;94.06
81162;BME280;70638;-33.792;151.032;2023-06-22T08:13:08;100919.80;;;10.01;94.11
81162;BME280;70638;-33.792;151.032;2023-06-22T08:15:38;100914.09;;;10.01;94.00
81162;BME280;70638;-33.792;151.032;2023-06-22T08:18:08;100902.84;;;10.02;94.00
81162;BME280;70638;-33.792;151.032;2023-06-22T08:20:39;100900.56;;;10.01;93.97
81162;BME280;70638;-33.792;151.032;2023-06-22T08:23:09;100905.84;;;10.00;94.02
81162;BME280;70638;-33.792;151.032;2023-06-22T08:25:39;100903.52;;;9.99;94.13
81162;BME280;70638;-33.792;151.032;2023-06-22T08:28:10;100893.23;;;9.97;94.27
81162;BME280;70638;-33.792;151.032;2023-06-22T08:30:40;100889.48;;;9.93;94.21
81162;BME280;70638;-33.792;151.032;2023-06-22T08:33:10;100883.67;;;9.92;94.21
81162;BME280;70638;-33.792;151.032;2023-06-22T08:35:41;100873.70;;;9.88;94.16
81162;BME280;70638;-33.792;151.032;2023-06-22T08:38:11;100870.25;;;9.85;94.18
81162;BME280;70638;-33.792;151.032;2023-06-22T08:40:42;100867.15;;;9.85;94.35
81162;BME280;70638;-33.792;151.032;2023-06-22T08:43:12;100864.46;;;9.85;94.40
81162;BME280;70638;-33.792;151.032;2023-06-22T08:45:50;100863.72;;;9.86;94.42
81162;BME280;70638;-33.792;151.032;2023-06-22T08:48:13;100864.64;;;9.85;94.49
81162;BME280;70638;-33.792;151.032;2023-06-22T08:50:43;100864.48;;;9.83;94.46
81162;BME280;70638;-33.792;151.032;2023-06-22T08:53:14;100860.75;;;9.81;94.58
81162;BME280;70638;-33.792;151.032;2023-06-22T08:55:44;100862.39;;;9.80;94.60
81162;BME280;70638;-33.792;151.032;2023-06-22T08:58:14;100854.45;;;9.78;94.61
81162;BME280;70638;-33.792;151.032;2023-06-22T09:00:45;100856.16;;;9.79;94.65
81162;BME280;70638;-33.792;151.032;2023-06-22T09:03:15;100854.08;;;9.78;94.57
81162;BME280;70638;-33.792;151.032;2023-06-22T09:05:45;100854.25;;;9.78;94.58
81162;BME280;70638;-33.792;151.032;2023-06-22T09:08:16;100849.95;;;9.77;94.52
81162;BME280;70638;-33.792;151.032;2023-06-22T09:10:46;100853.90;;;9.77;94.57
81162;BME280;70638;-33.792;151.032;2023-06-22T09:13:16;100855.16;;;9.78;94.63
81162;BME280;70638;-33.792;151.032;2023-06-22T09:15:46;100850.53;;;9.77;94.65
81162;BME280;70638;-33.792;151.032;2023-06-22T09:18:17;100847.45;;;9.78;94.62
81162;BME280;70638;-33.792;151.032;2023-06-22T09:20:57;100843.13;;;9.79;94.71
81162;BME280;70638;-33.792;151.032;2023-06-22T09:23:17;100844.89;;;9.82;94.72
81162;BME280;70638;-33.792;151.032;2023-06-22T09:25:47;100843.30;;;9.82;94.64
81162;BME280;70638;-33.792;151.032;2023-06-22T09:28:18;100841.65;;;9.81;94.69
81162;BME280;70638;-33.792;151.032;2023-06-22T09:30:48;100832.38;;;9.76;94.74
81162;BME280;70638;-33.792;151.032;2023-06-22T09:33:18;100834.02;;;9.64;94.74
81162;BME280;70638;-33.792;151.032;2023-06-22T09:35:49;100829.38;;;9.52;94.83
81162;BME280;70638;-33.792;151.032;2023-06-22T09:38:19;100823.80;;;9.48;94.98
81162;BME280;70638;-33.792;151.032;2023-06-22T09:40:49;100817.97;;;9.49;95.15
81162;BME280;70638;-33.792;151.032;2023-06-22T09:43:19;100811.28;;;9.51;95.17
81162;BME280;70638;-33.792;151.032;2023-06-22T09:45:50;100812.14;;;9.43;95.21
81162;BME280;70638;-33.792;151.032;2023-06-22T09:48:20;100814.11;;;9.36;95.17
81162;BME280;70638;-33.792;151.032;2023-06-22T09:50:50;100819.23;;;9.42;95.29
81162;BME280;70638;-33.792;151.032;2023-06-22T09:53:21;100824.52;;;9.49;95.32
81162;BME280;70638;-33.792;151.032;2023-06-22T09:55:58;100808.42;;;9.56;95.36
81162;BME280;70638;-33.792;151.032;2023-06-22T09:58:21;100799.85;;;9.59;95.31
81162;BME280;70638;-33.792;151.032;2023-06-22T10:00:52;100799.92;;;9.58;95.27
81162;BME280;70638;-33.792;151.032;2023-06-22T10:03:22;100796.90;;;9.61;95.29
81162;BME280;70638;-33.792;151.032;2023-06-22T10:05:52;100794.55;;;9.64;95.28
81162;BME280;70638;-33.792;151.032;2023-06-22T10:08:22;100792.35;;;9.66;95.17
81162;BME280;70638;-33.792;151.032;2023-06-22T10:10:53;100788.91;;;9.66;95.02
81162;BME280;70638;-33.792;151.032;2023-06-22T10:13:23;100774.49;;;9.64;94.80
81162;BME280;70638;-33.792;151.032;2023-06-22T10:15:53;100771.03;;;9.60;94.84
81162;BME280;70638;-33.792;151.032;2023-06-22T10:18:24;100777.86;;;9.59;94.86
81162;BME280;70638;-33.792;151.032;2023-06-22T10:20:54;100783.81;;;9.58;94.87
81162;BME280;70638;-33.792;151.032;2023-06-22T10:23:25;100804.36;;;9.60;94.87
81162;BME280;70638;-33.792;151.032;2023-06-22T10:25:55;100809.17;;;9.62;94.81
81162;BME280;70638;-33.792;151.032;2023-06-22T10:28:25;100804.89;;;9.59;94.48
81162;BME280;70638;-33.792;151.032;2023-06-22T10:31:01;100799.77;;;9.56;94.33
81162;BME280;70638;-33.792;151.032;2023-06-22T10:33:26;100793.49;;;9.51;93.89
81162;BME280;70638;-33.792;151.032;2023-06-22T10:35:56;100801.04;;;9.51;94.13
81162;BME280;70638;-33.792;151.032;2023-06-22T10:38:27;100797.08;;;9.50;94.18
81162;BME280;70638;-33.792;151.032;2023-06-22T10:40:57;100794.56;;;9.50;94.12
81162;BME280;70638;-33.792;151.032;2023-06-22T10:43:27;100792.12;;;9.50;94.23
81162;BME280;70638;-33.792;151.032;2023-06-22T10:45:58;100790.05;;;9.49;94.19
81162;BME280;70638;-33.792;151.032;2023-06-22T10:48:28;100779.77;;;9.46;94.10
81162;BME280;70638;-33.792;151.032;2023-06-22T10:50:59;100766.12;;;9.45;94.03
81162;BME280;70638;-33.792;151.032;2023-06-22T10:53:29;100755.80;;;9.45;94.27
81162;BME280;70638;-33.792;151.032;2023-06-22T10:55:59;100759.06;;;9.45;94.21
81162;BME280;70638;-33.792;151.032;2023-06-22T10:58:30;100749.17;;;9.43;94.29
81162;BME280;70638;-33.792;151.032;2023-06-22T11:01:00;100741.44;;;9.39;94.25
81162;BME280;70638;-33.792;151.032;2023-06-22T11:03:30;100733.39;;;9.34;94.17
81162;BME280;70638;-33.792;151.032;2023-06-22T11:06:14;100730.70;;;9.31;94.29
81162;BME280;70638;-33.792;151.032;2023-06-22T11:08:31;100719.20;;;9.33;94.50
81162;BME280;70638;-33.792;151.032;2023-06-22T11:11:02;100702.40;;;9.38;94.64
81162;BME280;70638;-33.792;151.032;2023-06-22T11:13:32;100694.94;;;9.39;94.48
81162;BME280;70638;-33.792;151.032;2023-06-22T11:16:03;100684.73;;;9.41;94.46
81162;BME280;70638;-33.792;151.032;2023-06-22T11:18:33;100687.39;;;9.39;94.40
81162;BME280;70638;-33.792;151.032;2023-06-22T11:21:04;100682.05;;;9.38;94.32
81162;BME280;70638;-33.792;151.032;2023-06-22T11:23:34;100674.55;;;9.39;94.35
81162;BME280;70638;-33.792;151.032;2023-06-22T11:26:04;100678.17;;;9.40;94.42
81162;BME280;70638;-33.792;151.032;2023-06-22T11:28:35;100676.98;;;9.42;94.36
81162;BME280;70638;-33.792;151.032;2023-06-22T11:31:05;100679.06;;;9.38;94.37
81162;BME280;70638;-33.792;151.032;2023-06-22T11:33:35;100677.52;;;9.32;94.16
81162;BME280;70638;-33.792;151.032;2023-06-22T11:36:06;100679.86;;;9.34;94.27
81162;BME280;70638;-33.792;151.032;2023-06-22T11:38:41;100675.73;;;9.37;94.27
81162;BME280;70638;-33.792;151.032;2023-06-22T11:41:07;100653.92;;;9.37;94.42
81162;BME280;70638;-33.792;151.032;2023-06-22T11:43:38;100648.52;;;9.38;94.28
81162;BME280;70638;-33.792;151.032;2023-06-22T11:46:08;100638.64;;;9.36;94.29
81162;BME280;70638;-33.792;151.032;2023-06-22T11:48:38;100621.55;;;9.29;93.94
81162;BME280;70638;-33.792;151.032;2023-06-22T11:51:08;100601.67;;;9.29;94.48
81162;BME280;70638;-33.792;151.032;2023-06-22T11:53:39;100595.97;;;9.30;94.70
81162;BME280;70638;-33.792;151.032;2023-06-22T11:56:09;100611.83;;;9.26;94.26
81162;BME280;70638;-33.792;151.032;2023-06-22T11:58:39;100622.05;;;9.22;93.90
81162;BME280;70638;-33.792;151.032;2023-06-22T12:01:10;100609.20;;;9.25;94.15
81162;BME280;70638;-33.792;151.032;2023-06-22T12:03:40;100614.09;;;9.29;94.57
81162;BME280;70638;-33.792;151.032;2023-06-22T12:06:10;100632.86;;;9.34;94.42
81162;BME280;70638;-33.792;151.032;2023-06-22T12:08:41;100651.06;;;9.40;94.54
81162;BME280;70638;-33.792;151.032;2023-06-22T12:11:11;100644.08;;;9.38;94.30
81162;BME280;70638;-33.792;151.032;2023-06-22T12:13:41;100646.86;;;9.36;93.61
81162;BME280;70638;-33.792;151.032;2023-06-22T12:16:12;100662.22;;;9.46;94.43
81162;BME280;70638;-33.792;151.032;2023-06-22T12:18:42;100664.70;;;9.50;94.35
81162;BME280;70638;-33.792;151.032;2023-06-22T12:21:13;100659.49;;;9.50;94.33
81162;BME280;70638;-33.792;151.032;2023-06-22T12:23:43;100657.48;;;9.53;94.21
81162;BME280;70638;-33.792;151.032;2023-06-22T12:26:13;100650.09;;;9.53;94.16
81162;BME280;70638;-33.792;151.032;2023-06-22T12:28:43;100636.57;;;9.56;94.32
81162;BME280;70638;-33.792;151.032;2023-06-22T12:31:14;100630.79;;;9.50;93.92
81162;BME280;70638;-33.792;151.032;2023-06-22T12:33:44;100626.49;;;9.49;94.25
81162;BME280;70638;-33.792;151.032;2023-06-22T12:36:15;100628.40;;;9.43;93.93
81162;BME280;70638;-33.792;151.032;2023-06-22T12:38:46;100629.59;;;9.38;93.93
81162;BME280;70638;-33.792;151.032;2023-06-22T12:41:16;100621.80;;;9.46;94.14
81162;BME280;70638;-33.792;151.032;2023-06-22T12:43:47;100611.91;;;9.44;93.86
81162;BME280;70638;-33.792;151.032;2023-06-22T12:46:17;100607.86;;;9.49;93.63